Good Hart, MI (49737)

9:03 PM EDT on September 01, 2015 (GMT -0400)
Creekside, 4 Miles WSW Bliss | | Change Station
CLOSE
Current Station
Personal Weather Station
Location: Bliss Township, MI
Elevation: 708 ft
Nearby Weather Stations

Elev 708 ft 45.65 °N, 84.92 °W | Updated 14 seconds ago

Clear
Clear
73.8 °F
Feels Like 74 °F
N
2.0
Wind Variable Wind from SSE
Gusts 2.0 mph

Today
High -- | Low -- °F
--% Chance of Precip.
Yesterday
High -- | Low -- °F
Precip. -- in
7:01 AM 8:18 PM
Waning Gibbous, 85% visible
Pressure 29.98 in
Visibility 10.0 miles
Clouds Scattered Clouds 4400 ft
Scattered Clouds 6000 ft
Mostly Cloudy 7500 ft
Heat Index 74 °F
Dew Point 68 °F
Humidity 81%
Rainfall 0.00 in
Snow Depth Not available.
UV 0 out of 12
Pollen 11.00 out of 12
Air Quality Not available.
Flu Activity Not available.
METAR KMGN 020054Z AUTO 00000KT 10SM SCT044 SCT060 BKN075 22/21 A2998 RMK AO2 T02300210
Pressure 29.98 in
Visibility 10.0 miles
Clouds Scattered Clouds 4400 ft
Scattered Clouds 6000 ft
Mostly Cloudy 7500 ft
Heat Index 74 °F
Dew Point 68 °F
Humidity 81%
Rainfall 0.00 in
Snow Depth Not available.
UV 0 out of 12
Pollen 11.00 out of 12
Air Quality Not available.
Flu Activity Not available.
METAR KMGN 020054Z AUTO 00000KT 10SM SCT044 SCT060 BKN075 22/21 A2998 RMK AO2 T02300210
Nowcast | as of 9:00 PM EDT on September 1, 2015

At 10 PM...mostly clear. Temperature 74. Light winds. At 12 am...partly cloudy. Areas of fog. Temperature 72. Light winds. At 2 am...mostly clear. Areas of fog. Temperature 72. Light winds. At 4 am...partly cloudy. Areas of fog. Temperature 71. Light winds.

×

10-Day Weather Forecast

×

Almanac

Astronomy

Sep. 01, 2015 Rise Set
Actual Time
Civil Twilight
Nautical Twilight
Astronomical Twilight
Moon
Length of Visible Light
Length of Day
Tomorrow will be .
, % of the Moon is Illuminated

Today's Extremes

State Highs State Lows

Community

WunderPhotos

Upload Photos

1,851,663 photos uploaded!

WunderBlogs® & News

Nearby

Air Quality

  Air Quality AQ Index Pollutant
Not available.

Snow Depth

Station Depth Elevation

Earthquake Activity

City Distance Mag. Time & Date
Minimum magnitude displayed is 2.5.

Coastal Water Temperatures

Place Temperature

Stations

Nearby Weather Stations

Station Location Temp. Windchill Dew Point Humidity Wind Precip. Elev Updated Type